sensor_id;sensor_type;location;lat;lon;timestamp;pressure;altitude;pressure_sealevel;temperature;humidity
55604;BME280;41468;48.838;9.330;2023-02-26T00:01:22;97838.50;;;1.49;76.39
55604;BME280;41468;48.838;9.330;2023-02-26T00:03:53;97832.31;;;1.48;76.94
55604;BME280;41468;48.838;9.330;2023-02-26T00:06:21;97835.31;;;1.47;77.34
55604;BME280;41468;48.838;9.330;2023-02-26T00:19:29;97840.09;;;1.32;76.53
55604;BME280;41468;48.838;9.330;2023-02-26T00:22:02;97838.81;;;1.39;76.03
55604;BME280;41468;48.838;9.330;2023-02-26T00:24:34;97841.38;;;1.26;75.87
55604;BME280;41468;48.838;9.330;2023-02-26T00:27:10;97837.06;;;1.34;76.18
55604;BME280;41468;48.838;9.330;2023-02-26T00:29:43;97844.84;;;1.18;76.77
55604;BME280;41468;48.838;9.330;2023-02-26T00:32:17;97842.47;;;1.08;76.87
55604;BME280;41468;48.838;9.330;2023-02-26T00:34:50;97846.44;;;1.10;77.01
55604;BME280;41468;48.838;9.330;2023-02-26T00:37:29;97841.38;;;1.09;76.78
55604;BME280;41468;48.838;9.330;2023-02-26T00:40:11;97845.00;;;1.04;76.27
55604;BME280;41468;48.838;9.330;2023-02-26T00:42:47;97855.09;;;1.07;76.21
55604;BME280;41468;48.838;9.330;2023-02-26T00:45:20;97849.91;;;1.11;76.07
55604;BME280;41468;48.838;9.330;2023-02-26T00:48:06;97856.06;;;1.03;76.37
55604;BME280;41468;48.838;9.330;2023-02-26T00:50:53;97847.38;;;1.06;75.22
55604;BME280;41468;48.838;9.330;2023-02-26T00:53:35;97853.88;;;1.14;74.71
55604;BME280;41468;48.838;9.330;2023-02-26T00:56:13;97855.59;;;1.01;74.98
55604;BME280;41468;48.838;9.330;2023-02-26T00:58:46;97844.06;;;1.09;74.68
55604;BME280;41468;48.838;9.330;2023-02-26T01:01:19;97853.88;;;1.05;74.82
55604;BME280;41468;48.838;9.330;2023-02-26T01:03:52;97845.16;;;0.91;75.21
55604;BME280;41468;48.838;9.330;2023-02-26T01:06:27;97855.91;;;0.99;75.16
55604;BME280;41468;48.838;9.330;2023-02-26T01:09:29;97847.53;;;0.92;75.53
55604;BME280;41468;48.838;9.330;2023-02-26T01:11:58;97844.50;;;0.76;75.72
55604;BME280;41468;48.838;9.330;2023-02-26T01:14:30;97847.19;;;0.85;75.61
55604;BME280;41468;48.838;9.330;2023-02-26T01:17:17;97844.22;;;0.86;75.57
55604;BME280;41468;48.838;9.330;2023-02-26T01:19:50;97838.50;;;0.79;75.70
55604;BME280;41468;48.838;9.330;2023-02-26T01:22:21;97838.97;;;0.73;75.98
55604;BME280;41468;48.838;9.330;2023-02-26T01:25:00;97844.34;;;0.73;75.53
55604;BME280;41468;48.838;9.330;2023-02-26T01:27:28;97840.84;;;0.72;75.51
55604;BME280;41468;48.838;9.330;2023-02-26T01:29:55;97845.88;;;0.56;75.46
55604;BME280;41468;48.838;9.330;2023-02-26T01:32:43;97844.16;;;0.69;75.56
55604;BME280;41468;48.838;9.330;2023-02-26T01:35:39;97849.53;;;0.69;75.93
55604;BME280;41468;48.838;9.330;2023-02-26T01:38:17;97847.78;;;0.47;75.60
55604;BME280;41468;48.838;9.330;2023-02-26T01:48:51;97858.66;;;0.51;75.29
55604;BME280;41468;48.838;9.330;2023-02-26T01:54:12;97857.38;;;0.39;75.98
55604;BME280;41468;48.838;9.330;2023-02-26T01:56:39;97858.66;;;0.42;75.42
55604;BME280;41468;48.838;9.330;2023-02-26T01:59:09;97856.22;;;0.23;76.25
55604;BME280;41468;48.838;9.330;2023-02-26T02:01:37;97854.69;;;0.31;75.85
55604;BME280;41468;48.838;9.330;2023-02-26T02:04:08;97857.66;;;0.29;75.98
55604;BME280;41468;48.838;9.330;2023-02-26T02:06:35;97857.38;;;0.31;75.64
55604;BME280;41468;48.838;9.330;2023-02-26T02:09:05;97860.03;;;0.22;76.67
55604;BME280;41468;48.838;9.330;2023-02-26T02:11:32;97856.72;;;0.25;75.70
55604;BME280;41468;48.838;9.330;2023-02-26T02:14:11;97861.22;;;0.07;76.30
55604;BME280;41468;48.838;9.330;2023-02-26T02:16:47;97854.94;;;0.20;76.44
55604;BME280;41468;48.838;9.330;2023-02-26T02:25:06;97860.81;;;0.22;76.21
55604;BME280;41468;48.838;9.330;2023-02-26T02:31:00;97866.41;;;0.04;76.54
55604;BME280;41468;48.838;9.330;2023-02-26T02:33:54;97869.25;;;-0.02;76.74
55604;BME280;41468;48.838;9.330;2023-02-26T02:36:31;97878.84;;;-0.01;77.04
55604;BME280;41468;48.838;9.330;2023-02-26T02:39:10;97887.66;;;-0.09;77.11
55604;BME280;41468;48.838;9.330;2023-02-26T02:41:44;97882.09;;;-0.21;77.87
55604;BME280;41468;48.838;9.330;2023-02-26T02:44:15;97885.56;;;-0.20;78.56
55604;BME280;41468;48.838;9.330;2023-02-26T02:46:46;97890.88;;;-0.29;77.83
55604;BME280;41468;48.838;9.330;2023-02-26T02:49:26;97892.16;;;-0.27;79.14
55604;BME280;41468;48.838;9.330;2023-02-26T02:51:59;97894.31;;;-0.37;78.87
55604;BME280;41468;48.838;9.330;2023-02-26T02:54:48;97892.03;;;-0.44;78.13
55604;BME280;41468;48.838;9.330;2023-02-26T02:57:26;97894.31;;;-0.37;78.57
55604;BME280;41468;48.838;9.330;2023-02-26T02:59:57;97887.03;;;-0.37;78.94
55604;BME280;41468;48.838;9.330;2023-02-26T03:02:31;97889.47;;;-0.27;78.61
55604;BME280;41468;48.838;9.330;2023-02-26T03:04:58;97890.91;;;-0.20;78.17
55604;BME280;41468;48.838;9.330;2023-02-26T03:07:25;97895.38;;;-0.38;78.56
55604;BME280;41468;48.838;9.330;2023-02-26T03:09:52;97896.38;;;-0.34;78.80
55604;BME280;41468;48.838;9.330;2023-02-26T03:12:20;97898.78;;;-0.47;78.57
55604;BME280;41468;48.838;9.330;2023-02-26T03:14:51;97904.94;;;-0.46;79.36
55604;BME280;41468;48.838;9.330;2023-02-26T03:17:26;97910.75;;;-0.53;79.70
55604;BME280;41468;48.838;9.330;2023-02-26T03:20:07;97904.03;;;-0.64;79.23
55604;BME280;41468;48.838;9.330;2023-02-26T03:23:03;97906.50;;;-0.54;79.76
55604;BME280;41468;48.838;9.330;2023-02-26T03:25:43;97900.03;;;-0.53;79.32
55604;BME280;41468;48.838;9.330;2023-02-26T03:28:35;97908.31;;;-0.63;78.90
55604;BME280;41468;48.838;9.330;2023-02-26T03:31:14;97910.25;;;-0.55;79.31
55604;BME280;41468;48.838;9.330;2023-02-26T03:36:41;97905.69;;;-0.32;78.88
55604;BME280;41468;48.838;9.330;2023-02-26T03:39:15;97903.94;;;-0.59;79.15
55604;BME280;41468;48.838;9.330;2023-02-26T03:42:07;97909.09;;;-0.62;79.91
55604;BME280;41468;48.838;9.330;2023-02-26T03:44:42;97905.78;;;-0.59;79.21
55604;BME280;41468;48.838;9.330;2023-02-26T03:47:12;97911.78;;;-0.62;79.03
55604;BME280;41468;48.838;9.330;2023-02-26T03:49:44;97912.25;;;-0.60;79.15
55604;BME280;41468;48.838;9.330;2023-02-26T03:52:12;97920.59;;;-0.62;79.95
55604;BME280;41468;48.838;9.330;2023-02-26T03:54:47;97922.09;;;-0.56;79.24
55604;BME280;41468;48.838;9.330;2023-02-26T03:57:15;97933.16;;;-0.71;79.61
55604;BME280;41468;48.838;9.330;2023-02-26T03:59:42;97928.78;;;-0.67;79.82
55604;BME280;41468;48.838;9.330;2023-02-26T04:02:23;97933.91;;;-0.93;80.42
55604;BME280;41468;48.838;9.330;2023-02-26T04:05:06;97940.66;;;-0.96;80.38
55604;BME280;41468;48.838;9.330;2023-02-26T04:07:47;97941.69;;;-0.69;80.14
55604;BME280;41468;48.838;9.330;2023-02-26T04:10:18;97938.44;;;-0.80;79.81
55604;BME280;41468;48.838;9.330;2023-02-26T04:12:46;97943.75;;;-0.88;80.42
55604;BME280;41468;48.838;9.330;2023-02-26T04:15:13;97943.75;;;-1.02;80.81
55604;BME280;41468;48.838;9.330;2023-02-26T04:17:40;97950.72;;;-1.15;80.71
55604;BME280;41468;48.838;9.330;2023-02-26T04:20:07;97947.94;;;-1.10;80.36
55604;BME280;41468;48.838;9.330;2023-02-26T04:22:41;97952.28;;;-1.00;79.07
55604;BME280;41468;48.838;9.330;2023-02-26T04:25:08;97944.28;;;-1.28;79.50
55604;BME280;41468;48.838;9.330;2023-02-26T04:27:35;97962.03;;;-1.04;79.77
55604;BME280;41468;48.838;9.330;2023-02-26T04:30:02;97950.31;;;-1.08;79.57
55604;BME280;41468;48.838;9.330;2023-02-26T04:32:28;97962.31;;;-1.06;80.70
55604;BME280;41468;48.838;9.330;2023-02-26T04:34:55;97954.78;;;-1.04;80.73
55604;BME280;41468;48.838;9.330;2023-02-26T04:37:22;97968.47;;;-1.05;80.94
55604;BME280;41468;48.838;9.330;2023-02-26T04:39:48;97962.72;;;-1.13;81.33
55604;BME280;41468;48.838;9.330;2023-02-26T04:42:15;97969.47;;;-1.15;80.31
55604;BME280;41468;48.838;9.330;2023-02-26T04:44:41;97961.66;;;-1.25;80.51
55604;BME280;41468;48.838;9.330;2023-02-26T04:47:08;97966.41;;;-1.22;81.40
55604;BME280;41468;48.838;9.330;2023-02-26T04:49:35;97969.00;;;-1.31;81.27
55604;BME280;41468;48.838;9.330;2023-02-26T04:52:01;97976.41;;;-1.28;81.80
55604;BME280;41468;48.838;9.330;2023-02-26T04:54:28;97976.34;;;-1.37;81.69
55604;BME280;41468;48.838;9.330;2023-02-26T04:56:54;97978.50;;;-1.39;81.68
55604;BME280;41468;48.838;9.330;2023-02-26T04:59:21;97981.88;;;-1.33;81.67
55604;BME280;41468;48.838;9.330;2023-02-26T05:01:47;97979.78;;;-1.50;81.37
55604;BME280;41468;48.838;9.330;2023-02-26T05:04:14;97975.31;;;-1.54;81.51
55604;BME280;41468;48.838;9.330;2023-02-26T05:06:41;97989.97;;;-1.66;81.73
55604;BME280;41468;48.838;9.330;2023-02-26T05:09:07;97986.72;;;-1.63;81.71
55604;BME280;41468;48.838;9.330;2023-02-26T05:11:34;97988.03;;;-1.46;81.17
55604;BME280;41468;48.838;9.330;2023-02-26T05:14:01;97989.59;;;-1.59;81.39
55604;BME280;41468;48.838;9.330;2023-02-26T05:16:27;97987.72;;;-1.17;80.79
55604;BME280;41468;48.838;9.330;2023-02-26T05:18:54;97990.00;;;-1.24;80.95
55604;BME280;41468;48.838;9.330;2023-02-26T05:21:21;97992.97;;;-1.53;80.90
55604;BME280;41468;48.838;9.330;2023-02-26T05:23:51;97999.50;;;-1.60;81.41
55604;BME280;41468;48.838;9.330;2023-02-26T05:26:18;97998.00;;;-1.66;81.54
55604;BME280;41468;48.838;9.330;2023-02-26T05:28:44;98007.44;;;-1.68;82.33
55604;BME280;41468;48.838;9.330;2023-02-26T05:31:12;98001.91;;;-1.58;81.70
55604;BME280;41468;48.838;9.330;2023-02-26T05:33:39;98012.91;;;-1.46;81.34
55604;BME280;41468;48.838;9.330;2023-02-26T05:36:05;98016.00;;;-1.52;81.75
55604;BME280;41468;48.838;9.330;2023-02-26T05:38:33;98015.19;;;-1.53;81.94
55604;BME280;41468;48.838;9.330;2023-02-26T05:40:59;98016.59;;;-1.56;81.62
55604;BME280;41468;48.838;9.330;2023-02-26T05:43:26;98024.31;;;-1.40;81.14
55604;BME280;41468;48.838;9.330;2023-02-26T05:45:53;98031.81;;;-1.56;81.28
55604;BME280;41468;48.838;9.330;2023-02-26T05:48:25;98032.03;;;-1.66;81.93
55604;BME280;41468;48.838;9.330;2023-02-26T05:50:52;98034.81;;;-1.58;81.71
55604;BME280;41468;48.838;9.330;2023-02-26T05:53:18;98043.56;;;-1.52;81.87
55604;BME280;41468;48.838;9.330;2023-02-26T05:55:51;98048.72;;;-1.56;80.90
55604;BME280;41468;48.838;9.330;2023-02-26T05:58:18;98039.84;;;-1.70;81.06
55604;BME280;41468;48.838;9.330;2023-02-26T06:00:45;98042.69;;;-1.47;81.17
55604;BME280;41468;48.838;9.330;2023-02-26T06:03:12;98045.53;;;-1.58;81.28
55604;BME280;41468;48.838;9.330;2023-02-26T06:05:39;98049.13;;;-1.81;81.45
55604;BME280;41468;48.838;9.330;2023-02-26T06:08:05;98049.72;;;-1.84;81.35
55604;BME280;41468;48.838;9.330;2023-02-26T06:10:32;98054.47;;;-1.81;81.27
55604;BME280;41468;48.838;9.330;2023-02-26T06:12:58;98054.06;;;-2.07;80.71
55604;BME280;41468;48.838;9.330;2023-02-26T06:15:25;98056.69;;;-2.02;81.35
55604;BME280;41468;48.838;9.330;2023-02-26T06:17:52;98061.38;;;-2.13;81.24
55604;BME280;41468;48.838;9.330;2023-02-26T06:20:18;98064.63;;;-1.97;82.00
55604;BME280;41468;48.838;9.330;2023-02-26T06:22:45;98062.25;;;-1.98;82.38
55604;BME280;41468;48.838;9.330;2023-02-26T06:25:11;98075.81;;;-1.76;81.54
55604;BME280;41468;48.838;9.330;2023-02-26T06:27:38;98077.31;;;-1.70;81.42
55604;BME280;41468;48.838;9.330;2023-02-26T06:30:05;98075.22;;;-1.73;81.48
55604;BME280;41468;48.838;9.330;2023-02-26T06:32:32;98086.63;;;-1.67;81.30
55604;BME280;41468;48.838;9.330;2023-02-26T06:34:59;98094.00;;;-1.59;81.87
55604;BME280;41468;48.838;9.330;2023-02-26T06:37:25;98092.53;;;-1.51;81.79
55604;BME280;41468;48.838;9.330;2023-02-26T06:39:52;98092.66;;;-1.43;81.73
55604;BME280;41468;48.838;9.330;2023-02-26T06:42:18;98095.38;;;-1.29;81.50
55604;BME280;41468;48.838;9.330;2023-02-26T06:44:45;98111.19;;;-1.46;82.55
55604;BME280;41468;48.838;9.330;2023-02-26T06:47:12;98102.38;;;-1.47;82.22
55604;BME280;41468;48.838;9.330;2023-02-26T06:49:38;98114.66;;;-1.46;82.32
55604;BME280;41468;48.838;9.330;2023-02-26T06:52:16;98118.97;;;-1.45;82.91
55604;BME280;41468;48.838;9.330;2023-02-26T06:54:42;98124.94;;;-1.34;82.91
55604;BME280;41468;48.838;9.330;2023-02-26T06:57:09;98118.59;;;-1.24;82.36
55604;BME280;41468;48.838;9.330;2023-02-26T06:59:43;98126.97;;;-1.12;81.83
55604;BME280;41468;48.838;9.330;2023-02-26T07:02:20;98125.56;;;-1.23;82.28
55604;BME280;41468;48.838;9.330;2023-02-26T07:04:47;98132.72;;;-1.05;81.76
55604;BME280;41468;48.838;9.330;2023-02-26T07:07:15;98131.72;;;-1.09;82.00
55604;BME280;41468;48.838;9.330;2023-02-26T07:09:41;98134.13;;;-1.07;81.82
55604;BME280;41468;48.838;9.330;2023-02-26T07:12:11;98137.09;;;-0.95;82.38
55604;BME280;41468;48.838;9.330;2023-02-26T07:14:37;98139.28;;;-0.97;82.48
55604;BME280;41468;48.838;9.330;2023-02-26T07:17:04;98135.13;;;-0.76;81.82
55604;BME280;41468;48.838;9.330;2023-02-26T07:19:31;98138.22;;;-0.69;81.50
55604;BME280;41468;48.838;9.330;2023-02-26T07:21:57;98145.06;;;-0.62;81.36
55604;BME280;41468;48.838;9.330;2023-02-26T07:24:24;98144.19;;;-0.58;81.58
55604;BME280;41468;48.838;9.330;2023-02-26T07:26:51;98153.41;;;-0.50;80.89
55604;BME280;41468;48.838;9.330;2023-02-26T07:29:17;98154.03;;;-0.53;80.00
55604;BME280;41468;48.838;9.330;2023-02-26T07:31:44;98156.38;;;-0.38;79.25
55604;BME280;41468;48.838;9.330;2023-02-26T07:34:11;98165.00;;;-0.27;79.03
55604;BME280;41468;48.838;9.330;2023-02-26T07:36:37;98162.25;;;-0.36;78.86
55604;BME280;41468;48.838;9.330;2023-02-26T07:39:04;98169.31;;;-0.26;78.82
55604;BME280;41468;48.838;9.330;2023-02-26T07:41:31;98174.97;;;-0.41;78.39
55604;BME280;41468;48.838;9.330;2023-02-26T07:43:57;98180.66;;;-0.43;79.34
55604;BME280;41468;48.838;9.330;2023-02-26T07:46:24;98177.34;;;-0.26;80.17
55604;BME280;41468;48.838;9.330;2023-02-26T07:48:51;98180.53;;;-0.24;82.21
55604;BME280;41468;48.838;9.330;2023-02-26T07:51:17;98175.84;;;-0.05;81.30
55604;BME280;41468;48.838;9.330;2023-02-26T07:53:44;98167.81;;;0.18;80.62
55604;BME280;41468;48.838;9.330;2023-02-26T07:56:11;98172.75;;;0.38;80.16
55604;BME280;41468;48.838;9.330;2023-02-26T07:58:37;98177.69;;;0.45;80.56
55604;BME280;41468;48.838;9.330;2023-02-26T08:01:04;98175.31;;;0.43;79.56
55604;BME280;41468;48.838;9.330;2023-02-26T08:03:35;98170.34;;;0.37;81.01
55604;BME280;41468;48.838;9.330;2023-02-26T08:06:02;98169.78;;;0.26;80.90
55604;BME280;41468;48.838;9.330;2023-02-26T08:08:30;98177.50;;;0.41;80.91
55604;BME280;41468;48.838;9.330;2023-02-26T08:11:04;98183.09;;;0.31;80.20
55604;BME280;41468;48.838;9.330;2023-02-26T08:13:30;98183.03;;;0.22;80.28
55604;BME280;41468;48.838;9.330;2023-02-26T08:15:57;98185.91;;;0.26;80.65
55604;BME280;41468;48.838;9.330;2023-02-26T08:18:24;98188.69;;;0.21;80.12
55604;BME280;41468;48.838;9.330;2023-02-26T08:20:50;98180.75;;;0.30;79.18
55604;BME280;41468;48.838;9.330;2023-02-26T08:23:18;98189.53;;;0.44;78.75
55604;BME280;41468;48.838;9.330;2023-02-26T08:25:44;98189.09;;;0.51;79.55
55604;BME280;41468;48.838;9.330;2023-02-26T08:28:11;98187.91;;;0.79;77.53
55604;BME280;41468;48.838;9.330;2023-02-26T08:30:38;98189.75;;;0.70;77.60
55604;BME280;41468;48.838;9.330;2023-02-26T08:33:05;98180.75;;;0.75;76.95
55604;BME280;41468;48.838;9.330;2023-02-26T08:35:32;98177.72;;;0.68;77.44
55604;BME280;41468;48.838;9.330;2023-02-26T08:37:58;98174.63;;;0.83;77.71
55604;BME280;41468;48.838;9.330;2023-02-26T08:40:25;98172.63;;;0.66;77.47
55604;BME280;41468;48.838;9.330;2023-02-26T08:42:52;98180.19;;;0.86;78.07
55604;BME280;41468;48.838;9.330;2023-02-26T08:45:18;98196.19;;;0.69;76.38
55604;BME280;41468;48.838;9.330;2023-02-26T08:47:45;98201.06;;;0.67;76.30
55604;BME280;41468;48.838;9.330;2023-02-26T08:50:23;98205.38;;;0.68;76.33
55604;BME280;41468;48.838;9.330;2023-02-26T08:52:49;98211.28;;;0.56;76.64
55604;BME280;41468;48.838;9.330;2023-02-26T08:55:16;98222.56;;;0.67;77.16
55604;BME280;41468;48.838;9.330;2023-02-26T08:57:43;98222.16;;;0.74;78.74
55604;BME280;41468;48.838;9.330;2023-02-26T09:00:10;98206.47;;;0.90;77.14
55604;BME280;41468;48.838;9.330;2023-02-26T09:02:37;98216.09;;;0.91;76.21
55604;BME280;41468;48.838;9.330;2023-02-26T09:05:16;98215.50;;;0.94;76.03
55604;BME280;41468;48.838;9.330;2023-02-26T09:07:43;98215.03;;;0.92;75.24
55604;BME280;41468;48.838;9.330;2023-02-26T09:10:11;98225.41;;;0.84;77.31
55604;BME280;41468;48.838;9.330;2023-02-26T09:12:38;98222.28;;;0.91;78.38
55604;BME280;41468;48.838;9.330;2023-02-26T09:15:06;98231.91;;;0.83;77.45
55604;BME280;41468;48.838;9.330;2023-02-26T09:17:37;98234.50;;;0.75;77.93
55604;BME280;41468;48.838;9.330;2023-02-26T09:20:05;98229.25;;;0.92;78.23
55604;BME280;41468;48.838;9.330;2023-02-26T09:22:31;98236.03;;;0.90;76.24
55604;BME280;41468;48.838;9.330;2023-02-26T09:24:58;98232.34;;;0.85;76.91
55604;BME280;41468;48.838;9.330;2023-02-26T09:27:25;98237.38;;;0.78;77.33
55604;BME280;41468;48.838;9.330;2023-02-26T09:29:51;98241.66;;;0.79;77.24
55604;BME280;41468;48.838;9.330;2023-02-26T09:32:18;98239.56;;;0.99;76.15
55604;BME280;41468;48.838;9.330;2023-02-26T09:34:45;98241.53;;;0.84;74.61
55604;BME280;41468;48.838;9.330;2023-02-26T09:37:12;98253.06;;;0.85;75.15
55604;BME280;41468;48.838;9.330;2023-02-26T09:39:38;98257.53;;;0.90;74.02
55604;BME280;41468;48.838;9.330;2023-02-26T09:44:55;98264.38;;;0.96;76.08
55604;BME280;41468;48.838;9.330;2023-02-26T09:47:29;98267.19;;;0.91;76.84
55604;BME280;41468;48.838;9.330;2023-02-26T09:50:10;98260.22;;;1.12;77.28
55604;BME280;41468;48.838;9.330;2023-02-26T09:52:49;98259.09;;;1.36;75.48
55604;BME280;41468;48.838;9.330;2023-02-26T09:55:36;98261.41;;;1.51;74.08
55604;BME280;41468;48.838;9.330;2023-02-26T09:58:12;98265.81;;;1.47;75.38
55604;BME280;41468;48.838;9.330;2023-02-26T10:14:50;98285.59;;;1.20;74.88
55604;BME280;41468;48.838;9.330;2023-02-26T10:19:47;98289.19;;;1.15;74.65
55604;BME280;41468;48.838;9.330;2023-02-26T10:25:39;98280.06;;;1.47;73.91
55604;BME280;41468;48.838;9.330;2023-02-26T10:30:58;98298.84;;;1.39;72.30
55604;BME280;41468;48.838;9.330;2023-02-26T10:34:01;98284.59;;;1.38;72.87
55604;BME280;41468;48.838;9.330;2023-02-26T10:39:35;98291.41;;;1.36;70.84
55604;BME280;41468;48.838;9.330;2023-02-26T10:42:11;98298.22;;;1.42;72.70
55604;BME280;41468;48.838;9.330;2023-02-26T10:47:56;98302.56;;;1.51;72.08
55604;BME280;41468;48.838;9.330;2023-02-26T10:50:26;98300.28;;;1.67;71.16
55604;BME280;41468;48.838;9.330;2023-02-26T10:52:55;98300.56;;;1.66;71.14
55604;BME280;41468;48.838;9.330;2023-02-26T10:55:28;98302.34;;;1.70;69.52
55604;BME280;41468;48.838;9.330;2023-02-26T10:58:03;98304.69;;;1.63;68.82
55604;BME280;41468;48.838;9.330;2023-02-26T11:00:31;98302.97;;;1.67;69.45
55604;BME280;41468;48.838;9.330;2023-02-26T11:03:02;98293.25;;;1.89;70.64
55604;BME280;41468;48.838;9.330;2023-02-26T11:05:34;98289.69;;;2.11;69.49
55604;BME280;41468;48.838;9.330;2023-02-26T11:08:14;98291.88;;;2.92;68.72
55604;BME280;41468;48.838;9.330;2023-02-26T11:10:57;98302.34;;;3.02;65.94
55604;BME280;41468;48.838;9.330;2023-02-26T11:13:26;98285.78;;;3.47;64.43
55604;BME280;41468;48.838;9.330;2023-02-26T11:15:56;98291.31;;;4.07;64.48
55604;BME280;41468;48.838;9.330;2023-02-26T11:18:35;98291.16;;;4.41;63.25
55604;BME280;41468;48.838;9.330;2023-02-26T11:21:06;98285.63;;;3.99;61.90
55604;BME280;41468;48.838;9.330;2023-02-26T11:23:34;98291.78;;;3.62;61.63
55604;BME280;41468;48.838;9.330;2023-02-26T11:26:13;98289.78;;;3.41;64.13
55604;BME280;41468;48.838;9.330;2023-02-26T11:28:47;98291.06;;;3.26;64.78
55604;BME280;41468;48.838;9.330;2023-02-26T11:31:17;98295.84;;;3.12;65.45
55604;BME280;41468;48.838;9.330;2023-02-26T11:33:48;98288.06;;;3.28;63.96
55604;BME280;41468;48.838;9.330;2023-02-26T11:36:18;98294.56;;;3.18;65.53
55604;BME280;41468;48.838;9.330;2023-02-26T11:38:53;98293.38;;;3.71;63.97
55604;BME280;41468;48.838;9.330;2023-02-26T11:41:21;98288.28;;;3.70;63.52
55604;BME280;41468;48.838;9.330;2023-02-26T11:43:59;98287.00;;;3.67;63.01
55604;BME280;41468;48.838;9.330;2023-02-26T11:46:27;98296.66;;;3.13;63.83
55604;BME280;41468;48.838;9.330;2023-02-26T11:48:55;98286.00;;;2.90;66.38
55604;BME280;41468;48.838;9.330;2023-02-26T11:51:25;98300.56;;;2.63;68.29
55604;BME280;41468;48.838;9.330;2023-02-26T11:53:58;98316.56;;;2.42;69.89
55604;BME280;41468;48.838;9.330;2023-02-26T11:56:40;98303.41;;;2.40;71.01
55604;BME280;41468;48.838;9.330;2023-02-26T11:59:22;98314.16;;;2.32;70.57
55604;BME280;41468;48.838;9.330;2023-02-26T12:01:50;98308.28;;;2.38;71.67
55604;BME280;41468;48.838;9.330;2023-02-26T12:04:20;98308.16;;;2.43;71.41
55604;BME280;41468;48.838;9.330;2023-02-26T12:06:49;98319.72;;;2.44;70.55
55604;BME280;41468;48.838;9.330;2023-02-26T12:09:17;98310.50;;;2.36;70.68
55604;BME280;41468;48.838;9.330;2023-02-26T12:14:29;98311.63;;;2.35;70.08
55604;BME280;41468;48.838;9.330;2023-02-26T12:22:34;98313.38;;;2.40;69.44
55604;BME280;41468;48.838;9.330;2023-02-26T12:33:23;98319.34;;;2.28;69.06
55604;BME280;41468;48.838;9.330;2023-02-26T12:39:10;98306.44;;;2.56;68.35
55604;BME280;41468;48.838;9.330;2023-02-26T13:13:02;98310.28;;;2.90;62.48
55604;BME280;41468;48.838;9.330;2023-02-26T13:21:01;98309.63;;;2.76;60.96
55604;BME280;41468;48.838;9.330;2023-02-26T13:23:49;98319.00;;;2.61;60.66
55604;BME280;41468;48.838;9.330;2023-02-26T13:26:17;98324.53;;;2.64;61.53
55604;BME280;41468;48.838;9.330;2023-02-26T13:28:49;98313.75;;;2.82;61.35
55604;BME280;41468;48.838;9.330;2023-02-26T13:31:38;98321.69;;;2.70;60.28
55604;BME280;41468;48.838;9.330;2023-02-26T13:34:14;98319.47;;;2.72;61.01
55604;BME280;41468;48.838;9.330;2023-02-26T13:36:42;98318.50;;;2.68;60.31
55604;BME280;41468;48.838;9.330;2023-02-26T13:42:24;98309.00;;;2.61;58.13
55604;BME280;41468;48.838;9.330;2023-02-26T13:45:20;98315.50;;;2.69;57.37
55604;BME280;41468;48.838;9.330;2023-02-26T13:48:16;98308.72;;;3.06;58.00
55604;BME280;41468;48.838;9.330;2023-02-26T13:55:51;98338.22;;;2.94;57.11
55604;BME280;41468;48.838;9.330;2023-02-26T14:03:45;98328.00;;;2.56;58.74
55604;BME280;41468;48.838;9.330;2023-02-26T14:06:34;98328.94;;;2.60;58.49
55604;BME280;41468;48.838;9.330;2023-02-26T14:09:14;98325.31;;;2.56;58.20
55604;BME280;41468;48.838;9.330;2023-02-26T14:16:52;98345.81;;;2.83;57.97
55604;BME280;41468;48.838;9.330;2023-02-26T14:19:24;98345.66;;;2.88;57.21
55604;BME280;41468;48.838;9.330;2023-02-26T14:21:52;98342.28;;;2.65;57.02
55604;BME280;41468;48.838;9.330;2023-02-26T14:24:30;98339.13;;;2.63;58.24
55604;BME280;41468;48.838;9.330;2023-02-26T14:29:42;98345.50;;;2.85;58.74
55604;BME280;41468;48.838;9.330;2023-02-26T14:34:54;98333.25;;;2.70;58.68
55604;BME280;41468;48.838;9.330;2023-02-26T14:37:26;98335.00;;;2.66;57.63
55604;BME280;41468;48.838;9.330;2023-02-26T14:40:09;98344.69;;;2.76;57.29
55604;BME280;41468;48.838;9.330;2023-02-26T14:42:58;98342.31;;;2.83;57.28
55604;BME280;41468;48.838;9.330;2023-02-26T14:45:29;98342.03;;;2.93;56.35
55604;BME280;41468;48.838;9.330;2023-02-26T14:47:58;98339.16;;;2.81;56.53
55604;BME280;41468;48.838;9.330;2023-02-26T14:50:34;98345.03;;;2.74;56.22
55604;BME280;41468;48.838;9.330;2023-02-26T14:53:23;98354.22;;;2.82;57.70
55604;BME280;41468;48.838;9.330;2023-02-26T14:59:43;98353.91;;;2.83;56.57
55604;BME280;41468;48.838;9.330;2023-02-26T15:05:03;98354.41;;;2.94;55.67
55604;BME280;41468;48.838;9.330;2023-02-26T15:15:56;98358.66;;;2.69;56.13
55604;BME280;41468;48.838;9.330;2023-02-26T15:21:16;98366.16;;;2.98;56.61
55604;BME280;41468;48.838;9.330;2023-02-26T15:23:49;98375.97;;;2.94;57.27
55604;BME280;41468;48.838;9.330;2023-02-26T15:26:24;98378.81;;;2.98;56.49
55604;BME280;41468;48.838;9.330;2023-02-26T15:28:52;98374.41;;;2.93;55.88
55604;BME280;41468;48.838;9.330;2023-02-26T15:31:21;98391.84;;;3.04;55.79
55604;BME280;41468;48.838;9.330;2023-02-26T15:33:55;98387.03;;;2.67;54.71
55604;BME280;41468;48.838;9.330;2023-02-26T15:36:22;98382.94;;;2.78;55.09
55604;BME280;41468;48.838;9.330;2023-02-26T15:38:56;98384.06;;;3.03;54.66
55604;BME280;41468;48.838;9.330;2023-02-26T15:41:26;98386.09;;;2.80;54.45
55604;BME280;41468;48.838;9.330;2023-02-26T15:44:00;98391.34;;;2.85;54.50
55604;BME280;41468;48.838;9.330;2023-02-26T15:46:34;98393.72;;;2.86;54.57
55604;BME280;41468;48.838;9.330;2023-02-26T15:49:24;98396.75;;;2.85;53.11
55604;BME280;41468;48.838;9.330;2023-02-26T15:51:52;98402.16;;;2.85;51.01
55604;BME280;41468;48.838;9.330;2023-02-26T15:54:21;98418.09;;;2.64;51.94
55604;BME280;41468;48.838;9.330;2023-02-26T15:56:49;98402.31;;;2.40;51.64
55604;BME280;41468;48.838;9.330;2023-02-26T15:59:22;98397.41;;;2.42;52.25
55604;BME280;41468;48.838;9.330;2023-02-26T16:01:50;98417.34;;;2.32;52.88
55604;BME280;41468;48.838;9.330;2023-02-26T16:04:19;98415.00;;;2.39;52.52
55604;BME280;41468;48.838;9.330;2023-02-26T16:06:49;98421.94;;;2.32;51.91
55604;BME280;41468;48.838;9.330;2023-02-26T16:09:35;98415.47;;;2.41;51.64
55604;BME280;41468;48.838;9.330;2023-02-26T16:12:13;98429.06;;;2.36;51.88
55604;BME280;41468;48.838;9.330;2023-02-26T16:14:45;98424.63;;;2.32;52.54